Time;durP1;ratioP1;P1;durP2;ratioP2;P2;SDS_P1;SDS_P2;PMS_P1;PMS_P2;Temp;Humidity;BMP_temperature;BMP_pressure;BME280_temperature;BME280_humidity;BME280_pressure;Samples;Min_cycle;Max_cycle;Signal;HPM_P1;HPM_P2
2023/08/15 00:02:15;;;;;;;10.00;7.60;;;;;;;20.01;79.51;100449.58;131095;1256;107800;-74
2023/08/15 00:05:21;;;;;;;8.70;7.90;;;;;;;20.02;79.58;100452.46;130968;1250;106636;-73
2023/08/15 00:08:41;;;;;;;9.10;8.30;;;;;;;19.98;79.69;100456.16;130964;1250;108554;-74
2023/08/15 00:11:47;;;;;;;8.40;7.50;;;;;;;19.96;79.78;100454.21;130942;1256;108461;-74
2023/08/15 00:14:53;;;;;;;8.50;7.50;;;;;;;19.95;79.75;100450.76;130948;1265;106238;-73
2023/08/15 00:17:58;;;;;;;10.50;7.70;;;;;;;19.95;79.94;100448.00;131070;1251;108116;-73
2023/08/15 00:21:04;;;;;;;9.70;8.00;;;;;;;19.95;79.97;100448.33;131021;1254;107469;-73
2023/08/15 00:24:10;;;;;;;9.00;7.90;;;;;;;19.93;79.90;100452.13;131024;1254;107605;-74
2023/08/15 00:27:16;;;;;;;10.90;8.70;;;;;;;19.91;80.02;100454.87;131031;1256;107675;-73
2023/08/15 00:30:21;;;;;;;9.00;8.10;;;;;;;19.89;80.29;100451.09;131041;1250;107053;-72
2023/08/15 00:33:27;;;;;;;9.00;7.50;;;;;;;19.87;80.23;100452.10;130954;1251;107574;-73
2023/08/15 00:36:33;;;;;;;8.20;7.40;;;;;;;19.85;80.35;100454.48;131041;1264;107677;-73
2023/08/15 00:39:39;;;;;;;9.40;8.30;;;;;;;19.86;80.39;100451.36;131127;1263;107116;-73
2023/08/15 00:42:44;;;;;;;9.70;8.30;;;;;;;19.85;80.47;100453.34;130872;1251;109458;-74
2023/08/15 00:45:51;;;;;;;10.50;8.80;;;;;;;19.84;80.64;100449.75;131008;1253;107728;-73
2023/08/15 00:48:57;;;;;;;8.90;8.00;;;;;;;19.80;80.68;100449.69;131009;1251;107671;-73
2023/08/15 00:52:05;;;;;;;9.80;8.00;;;;;;;19.81;80.85;100448.55;130863;1253;107655;-73
2023/08/15 00:55:12;;;;;;;9.10;8.20;;;;;;;19.80;80.89;100449.27;131035;1254;106545;-73
2023/08/15 00:58:18;;;;;;;9.00;8.10;;;;;;;19.78;81.00;100446.60;130999;1253;105625;-73
2023/08/15 01:01:25;;;;;;;9.80;8.80;;;;;;;19.80;81.18;100450.27;130972;1256;107013;-74
2023/08/15 01:04:32;;;;;;;11.00;8.20;;;;;;;19.80;81.18;100450.05;131106;1266;106987;-73
2023/08/15 01:07:38;;;;;;;8.20;7.40;;;;;;;19.78;81.26;100452.55;131033;1256;106379;-74
2023/08/15 01:10:45;;;;;;;9.70;8.00;;;;;;;19.78;81.43;100452.60;130970;1250;108691;-73
2023/08/15 01:13:59;;;;;;;8.70;7.90;;;;;;;19.77;81.47;100445.60;131035;1253;106956;-74
2023/08/15 01:17:08;;;;;;;11.50;8.60;;;;;;;19.77;81.47;100442.52;131064;1253;107112;-74
2023/08/15 01:20:21;;;;;;;9.70;8.70;;;;;;;19.75;81.52;100444.89;131010;1251;106309;-73
2023/08/15 01:23:40;;;;;;;8.60;7.60;;;;;;;19.69;81.87;100446.33;131037;1261;108723;-73
2023/08/15 01:26:46;;;;;;;8.00;7.20;;;;;;;19.66;81.78;100448.94;130945;1256;106483;-73
2023/08/15 01:29:51;;;;;;;9.80;8.30;;;;;;;19.66;81.97;100443.36;130943;1253;107854;-73
2023/08/15 01:33:07;;;;;;;9.70;8.60;;;;;;;19.65;82.14;100445.65;131080;1254;106766;-73
2023/08/15 01:36:17;;;;;;;9.80;8.50;;;;;;;19.66;82.11;100445.11;130996;1251;107729;-73
2023/08/15 01:39:28;;;;;;;9.40;8.40;;;;;;;19.64;82.39;100441.58;131026;1265;108574;-75
2023/08/15 01:42:35;;;;;;;8.60;7.80;;;;;;;19.66;82.60;100444.57;130936;1256;106806;-73
2023/08/15 01:45:41;;;;;;;10.00;8.70;;;;;;;19.66;82.63;100439.52;130939;1257;107912;-74
2023/08/15 01:48:47;;;;;;;9.70;8.70;;;;;;;19.67;82.90;100439.40;130967;1256;107657;-73
2023/08/15 01:51:54;;;;;;;10.00;9.10;;;;;;;19.72;82.92;100443.80;131000;1250;109343;-73
2023/08/15 01:54:59;;;;;;;9.60;8.50;;;;;;;19.73;82.95;100444.61;131028;1255;107753;-73
2023/08/15 01:58:05;;;;;;;8.60;7.70;;;;;;;19.71;83.00;100448.29;130965;1253;108452;-73
2023/08/15 02:01:10;;;;;;;9.40;8.40;;;;;;;19.70;83.13;100449.27;130967;1257;107687;-73
2023/08/15 02:04:18;;;;;;;10.00;9.00;;;;;;;19.70;83.31;100453.40;131045;1253;107884;-73
2023/08/15 02:07:23;;;;;;;10.00;8.70;;;;;;;19.68;83.24;100453.35;130967;1253;106337;-73
2023/08/15 02:10:29;;;;;;;9.70;8.20;;;;;;;19.62;83.13;100459.57;130939;1256;106850;-73
2023/08/15 02:13:35;;;;;;;10.40;7.80;;;;;;;19.58;83.09;100461.48;130954;1251;107566;-73
2023/08/15 02:16:40;;;;;;;9.00;8.10;;;;;;;19.55;83.53;100463.80;131001;1256;107709;-74
2023/08/15 02:19:46;;;;;;;9.20;8.30;;;;;;;19.51;83.28;100463.51;130976;1256;107401;-73
2023/08/15 02:22:52;;;;;;;9.50;8.60;;;;;;;19.48;83.43;100464.13;130920;1254;108745;-73
2023/08/15 02:25:57;;;;;;;9.80;8.30;;;;;;;19.46;83.44;100463.95;131052;1250;107786;-74
2023/08/15 02:29:04;;;;;;;8.50;7.70;;;;;;;19.41;83.64;100464.83;131172;1253;107106;-74
2023/08/15 02:32:09;;;;;;;9.20;8.30;;;;;;;19.39;83.65;100467.20;130956;1263;107869;-73
2023/08/15 02:35:15;;;;;;;10.20;9.20;;;;;;;19.37;83.76;100465.95;131021;1253;106840;-73
2023/08/15 02:38:20;;;;;;;10.10;9.10;;;;;;;19.38;84.08;100463.16;131009;1250;107624;-73
2023/08/15 02:41:26;;;;;;;9.50;8.40;;;;;;;19.38;83.96;100461.73;130960;1255;108754;-73
2023/08/15 02:44:32;;;;;;;11.80;8.60;;;;;;;19.36;83.89;100456.79;131082;1256;106977;-73
2023/08/15 02:47:38;;;;;;;9.80;8.70;;;;;;;19.32;84.09;100458.95;131055;1250;106775;-74
2023/08/15 02:50:45;;;;;;;9.60;8.40;;;;;;;19.26;83.91;100458.44;131038;1252;108538;-74
2023/08/15 02:53:51;;;;;;;11.80;8.90;;;;;;;19.23;83.95;100462.92;131026;1253;107680;-73
2023/08/15 02:56:57;;;;;;;11.50;8.80;;;;;;;19.21;84.08;100461.59;130862;1256;107632;-73
2023/08/15 03:00:03;;;;;;;11.00;8.50;;;;;;;19.15;83.98;100460.38;130957;1253;106126;-74
2023/08/15 03:03:09;;;;;;;11.10;9.70;;;;;;;19.14;84.29;100465.81;131001;1257;108920;-73
2023/08/15 03:06:15;;;;;;;11.90;9.50;;;;;;;19.13;84.42;100461.28;130902;1256;107883;-74
2023/08/15 03:09:20;;;;;;;10.90;9.10;;;;;;;19.12;84.34;100456.54;131020;1254;107787;-73
2023/08/15 03:12:26;;;;;;;10.20;9.20;;;;;;;19.07;84.33;100469.39;130945;1256;108665;-73
2023/08/15 03:15:32;;;;;;;9.30;8.00;;;;;;;18.99;84.23;100464.48;130963;1251;108636;-74
2023/08/15 03:18:37;;;;;;;11.10;8.50;;;;;;;18.87;84.36;100468.05;130902;1259;106474;-73
2023/08/15 03:21:43;;;;;;;12.70;9.20;;;;;;;18.83;84.62;100468.27;131089;1256;107731;-73
2023/08/15 03:24:49;;;;;;;12.50;9.10;;;;;;;18.85;84.58;100462.98;131021;1251;107643;-73
2023/08/15 03:27:55;;;;;;;9.50;8.50;;;;;;;18.84;84.61;100465.81;131086;1253;106869;-74
2023/08/15 03:31:05;;;;;;;9.50;8.60;;;;;;;18.83;84.73;100468.59;130930;1256;106961;-73
2023/08/15 03:34:11;;;;;;;13.00;9.80;;;;;;;18.82;84.96;100471.67;131018;1266;107611;-74
2023/08/15 03:37:17;;;;;;;11.30;9.20;;;;;;;18.80;84.68;100474.60;130949;1256;106553;-74
2023/08/15 03:40:22;;;;;;;10.40;9.20;;;;;;;18.73;84.64;100474.95;131025;1253;108708;-73
2023/08/15 03:43:28;;;;;;;9.90;8.90;;;;;;;18.71;84.72;100473.84;130939;1256;107916;-73
2023/08/15 03:46:34;;;;;;;10.30;8.60;;;;;;;18.70;84.78;100475.28;130969;1256;107518;-74
2023/08/15 03:49:39;;;;;;;9.30;8.10;;;;;;;18.68;84.71;100473.48;131090;1250;106722;-74
2023/08/15 03:52:45;;;;;;;10.30;9.20;;;;;;;18.65;85.06;100474.52;131042;1250;107671;-73
2023/08/15 03:55:52;;;;;;;10.50;9.40;;;;;;;18.67;85.12;100475.73;131045;1253;107673;-74
2023/08/15 03:58:57;;;;;;;10.90;9.80;;;;;;;18.70;85.18;100481.27;131007;1256;106716;-74
2023/08/15 04:02:03;;;;;;;11.10;8.40;;;;;;;18.75;85.14;100481.46;131051;1257;106900;-73
2023/08/15 04:05:09;;;;;;;10.10;8.40;;;;;;;18.79;85.20;100481.23;131060;1253;106901;-73
2023/08/15 04:08:16;;;;;;;11.30;8.70;;;;;;;18.82;85.08;100484.20;131064;1254;107849;-74
2023/08/15 04:11:22;;;;;;;10.90;8.70;;;;;;;18.87;85.00;100487.03;130882;1257;107737;-73
2023/08/15 04:14:27;;;;;;;10.20;9.20;;;;;;;18.93;85.02;100487.97;130972;1257;108339;-73
2023/08/15 04:17:33;;;;;;;11.40;8.60;;;;;;;18.96;84.95;100488.52;130961;1251;108473;-73
2023/08/15 04:20:40;;;;;;;10.60;8.50;;;;;;;18.95;85.13;100491.97;130964;1256;108629;-74
2023/08/15 04:23:46;;;;;;;9.90;8.90;;;;;;;18.96;85.39;100492.69;131071;1254;108462;-73
2023/08/15 04:26:52;;;;;;;10.70;8.70;;;;;;;19.00;85.22;100499.14;131054;1253;107003;-73
2023/08/15 04:29:58;;;;;;;9.40;8.50;;;;;;;19.08;85.35;100499.43;131026;1253;107792;-73
2023/08/15 04:33:04;;;;;;;10.60;8.90;;;;;;;19.12;85.38;100500.84;131152;1251;107557;-73
2023/08/15 04:36:09;;;;;;;9.20;8.10;;;;;;;19.18;85.59;100505.23;130964;1256;108716;-72
2023/08/15 04:39:18;;;;;;;10.80;8.20;;;;;;;19.32;85.67;100503.86;131016;1264;106902;-74
2023/08/15 04:42:24;;;;;;;11.10;8.50;;;;;;;19.47;85.65;100500.30;131082;1251;106577;-74
2023/08/15 04:45:30;;;;;;;9.40;8.50;;;;;;;19.71;85.74;100492.48;131013;1251;107652;-74
2023/08/15 04:48:36;;;;;;;9.40;8.30;;;;;;;19.95;85.80;100496.88;131077;1256;107572;-73
2023/08/15 04:51:41;;;;;;;11.20;9.10;;;;;;;20.15;85.86;100493.32;130959;1253;107771;-74
2023/08/15 04:54:47;;;;;;;10.80;9.10;;;;;;;20.37;85.85;100489.48;130953;1256;107931;-74
2023/08/15 04:57:52;;;;;;;10.40;9.00;;;;;;;20.60;85.82;100491.73;130897;1255;107575;-74
2023/08/15 05:00:58;;;;;;;11.10;9.70;;;;;;;20.85;85.80;100490.08;130922;1256;107795;-73
2023/08/15 05:04:05;;;;;;;10.00;9.00;;;;;;;21.08;85.78;100492.27;131112;1262;106857;-74
2023/08/15 05:07:11;;;;;;;9.60;8.60;;;;;;;21.31;85.63;100494.82;130949;1256;107950;-74
2023/08/15 05:10:16;;;;;;;10.00;9.00;;;;;;;21.53;85.55;100492.15;131015;1257;106867;-74
2023/08/15 05:13:24;;;;;;;9.70;8.70;;;;;;;21.76;85.73;100494.79;131017;1253;107358;-74
2023/08/15 05:16:30;;;;;;;10.50;9.50;;;;;;;21.99;85.38;100492.67;131079;1257;107949;-74
2023/08/15 05:19:36;;;;;;;10.70;9.40;;;;;;;22.21;85.12;100488.51;130951;1259;107590;-74
2023/08/15 05:22:41;;;;;;;10.00;8.90;;;;;;;22.40;84.75;100484.48;130931;1255;107442;-73
2023/08/15 05:25:48;;;;;;;10.70;8.80;;;;;;;22.59;84.33;100488.22;130970;1254;107851;-74
2023/08/15 05:28:54;;;;;;;9.20;8.30;;;;;;;22.79;84.28;100492.83;131039;1263;107219;-73
2023/08/15 05:32:00;;;;;;;8.50;7.70;;;;;;;22.97;83.83;100495.38;131046;1255;106086;-73
2023/08/15 05:35:07;;;;;;;8.30;7.30;;;;;;;23.12;82.76;100492.80;131250;1256;107918;-74
2023/08/15 05:38:12;;;;;;;9.00;8.00;;;;;;;23.28;82.79;100496.56;131162;1257;107263;-74
2023/08/15 05:41:18;;;;;;;7.80;7.10;;;;;;;23.40;82.52;100489.30;131356;1254;108439;-76
2023/08/15 05:44:23;;;;;;;7.80;6.80;;;;;;;23.50;82.00;100491.09;131233;1254;107407;-76
2023/08/15 05:47:29;;;;;;;9.30;8.40;;;;;;;23.61;81.39;100489.06;131233;1263;106598;-77
2023/08/15 05:50:34;;;;;;;7.40;6.80;;;;;;;23.72;81.04;100491.27;131071;1254;108753;-76
2023/08/15 05:53:41;;;;;;;9.30;8.50;;;;;;;23.80;80.86;100494.52;131047;1255;107685;-75
2023/08/15 05:56:46;;;;;;;9.80;8.80;;;;;;;23.89;81.00;100495.63;130906;1263;107631;-74
2023/08/15 05:59:52;;;;;;;12.30;9.10;;;;;;;23.94;81.06;100495.70;131181;1257;107163;-75
2023/08/15 06:02:58;;;;;;;9.30;7.90;;;;;;;24.00;81.32;100494.96;131002;1257;107924;-75
2023/08/15 06:06:03;;;;;;;10.90;8.20;;;;;;;24.07;80.76;100495.56;131122;1253;107004;-74
2023/08/15 06:09:09;;;;;;;7.60;6.90;;;;;;;24.15;80.38;100494.21;131017;1258;106255;-73
2023/08/15 06:12:14;;;;;;;10.80;8.10;;;;;;;24.21;79.98;100499.50;131016;1261;108661;-78
2023/08/15 06:15:20;;;;;;;9.60;8.50;;;;;;;24.29;80.31;100495.63;131120;1254;106699;-78
2023/08/15 06:18:26;;;;;;;9.30;8.30;;;;;;;24.37;80.04;100498.75;131112;1254;106597;-79
2023/08/15 06:21:31;;;;;;;8.60;7.70;;;;;;;24.42;79.76;100500.67;130983;1257;107770;-79
2023/08/15 06:24:37;;;;;;;9.70;7.30;;;;;;;24.47;79.88;100504.23;130995;1256;107886;-79
2023/08/15 06:27:42;;;;;;;9.20;7.30;;;;;;;24.54;79.60;100505.27;131198;1256;109924;-77
2023/08/15 06:30:49;;;;;;;7.70;6.90;;;;;;;24.59;78.90;100504.02;131423;1253;107533;-75
2023/08/15 06:33:54;;;;;;;8.00;7.20;;;;;;;24.67;78.76;100507.41;131291;1253;106589;-75
2023/08/15 06:37:00;;;;;;;8.80;7.80;;;;;;;24.76;78.70;100507.85;131294;1253;107838;-75
2023/08/15 06:40:08;;;;;;;9.90;7.30;;;;;;;24.84;78.23;100504.42;131134;1263;107697;-81
2023/08/15 06:43:14;;;;;;;9.70;7.40;;;;;;;24.90;78.01;100503.36;131090;1254;108470;-75
2023/08/15 06:46:20;;;;;;;8.80;8.00;;;;;;;24.97;77.90;100505.45;131001;1264;108417;-76
2023/08/15 06:49:26;;;;;;;8.70;7.80;;;;;;;25.02;77.62;100507.52;131201;1257;108825;-77
2023/08/15 06:52:31;;;;;;;8.80;8.00;;;;;;;25.07;77.35;100508.50;131043;1253;107155;-75
2023/08/15 06:55:37;;;;;;;8.90;7.50;;;;;;;25.13;76.97;100513.19;131022;1251;107783;-76
2023/08/15 06:58:42;;;;;;;8.60;7.80;;;;;;;25.16;76.72;100518.06;131043;1251;107639;-76
2023/08/15 07:01:48;;;;;;;7.50;6.70;;;;;;;25.21;76.77;100519.63;131004;1255;107598;-74
2023/08/15 07:04:54;;;;;;;7.30;6.60;;;;;;;25.28;76.50;100517.16;131038;1253;106429;-76
2023/08/15 07:07:59;;;;;;;7.80;7.00;;;;;;;25.35;75.96;100521.07;131058;1251;108099;-76
2023/08/15 07:11:05;;;;;;;7.30;6.50;;;;;;;25.46;75.69;100521.27;130999;1257;107837;-75
2023/08/15 07:14:10;;;;;;;7.90;7.10;;;;;;;25.59;75.42;100526.76;131053;1254;108673;-75
2023/08/15 07:17:16;;;;;;;7.50;6.80;;;;;;;25.72;74.99;100531.94;131068;1256;107877;-75
2023/08/15 07:20:22;;;;;;;9.40;6.50;;;;;;;25.82;74.36;100535.99;131092;1254;108193;-76
2023/08/15 07:23:28;;;;;;;6.70;6.10;;;;;;;25.92;73.73;100537.77;130965;1256;107669;-75
2023/08/15 07:26:33;;;;;;;7.00;6.20;;;;;;;25.98;72.90;100528.32;130962;1257;108657;-76
2023/08/15 07:29:39;;;;;;;7.10;6.40;;;;;;;26.06;73.17;100525.22;131153;1260;107127;-78
2023/08/15 07:32:45;;;;;;;7.40;6.30;;;;;;;26.14;73.01;100532.34;131349;1253;107693;-78
2023/08/15 07:35:50;;;;;;;9.40;6.20;;;;;;;26.21;72.57;100527.97;131040;1255;105862;-76
2023/08/15 07:38:57;;;;;;;6.20;5.50;;;;;;;26.29;72.11;100526.06;131028;1261;108476;-76
2023/08/15 07:42:02;;;;;;;7.70;5.90;;;;;;;26.36;72.17;100528.30;131078;1263;108696;-76
2023/08/15 07:45:11;;;;;;;7.50;5.80;;;;;;;26.46;71.60;100531.88;131014;1255;107873;-76
2023/08/15 07:48:17;;;;;;;8.60;5.30;;;;;;;26.53;70.92;100528.54;131040;1255;107385;-80
2023/08/15 07:51:23;;;;;;;5.70;4.50;;;;;;;26.58;70.18;100527.14;131174;1253;108588;-74
2023/08/15 07:54:29;;;;;;;4.70;4.20;;;;;;;26.64;69.87;100521.65;131156;1263;107785;-75
2023/08/15 07:57:34;;;;;;;6.80;4.20;;;;;;;26.71;68.47;100519.72;131189;1257;108904;-75
2023/08/15 08:00:41;;;;;;;4.60;4.10;;;;;;;26.79;67.50;100522.39;131207;1251;107207;-76
2023/08/15 08:03:47;;;;;;;5.40;3.90;;;;;;;26.88;67.10;100520.64;131691;1251;106992;-75
2023/08/15 08:06:53;;;;;;;4.20;3.80;;;;;;;26.97;66.95;100521.41;131513;1254;107839;-75
2023/08/15 08:09:59;;;;;;;5.60;4.10;;;;;;;27.02;66.32;100519.83;131225;1251;108579;-76
2023/08/15 08:13:06;;;;;;;4.80;4.00;;;;;;;27.13;65.64;100518.84;133068;1251;108583;-76
2023/08/15 08:16:12;;;;;;;4.40;3.80;;;;;;;27.22;65.28;100510.70;131691;1251;108358;-75
2023/08/15 08:19:17;;;;;;;7.00;3.60;;;;;;;27.31;64.98;100509.00;131325;1263;107862;-76
2023/08/15 08:22:23;;;;;;;6.80;3.70;;;;;;;27.40;64.66;100506.95;131347;1254;108736;-76
2023/08/15 08:25:29;;;;;;;4.10;3.70;;;;;;;27.47;63.55;100508.44;135173;1250;106844;-76
2023/08/15 08:28:34;;;;;;;4.70;3.80;;;;;;;27.55;62.90;100506.86;135284;1251;106922;-77
2023/08/15 08:31:41;;;;;;;4.10;3.40;;;;;;;27.63;62.61;100503.49;133953;1250;106556;-77
2023/08/15 08:34:46;;;;;;;6.40;3.70;;;;;;;27.72;62.14;100503.90;131198;1254;108387;-76
2023/08/15 08:37:52;;;;;;;6.40;3.70;;;;;;;27.85;61.79;100500.55;131117;1256;108186;-76
2023/08/15 08:40:57;;;;;;;4.00;3.60;;;;;;;27.93;61.35;100498.17;131060;1257;106753;-76
2023/08/15 08:44:03;;;;;;;4.00;3.60;;;;;;;27.99;61.07;100493.00;130973;1257;108972;-76
2023/08/15 08:47:11;;;;;;;3.90;3.50;;;;;;;28.07;61.07;100484.33;131060;1254;107369;-76
2023/08/15 08:50:17;;;;;;;5.40;3.30;;;;;;;28.12;59.12;100484.32;131074;1254;106892;-76
2023/08/15 08:53:23;;;;;;;3.50;3.10;;;;;;;28.18;58.94;100484.84;131117;1254;106676;-76
2023/08/15 08:56:30;;;;;;;6.40;3.40;;;;;;;28.24;58.71;100485.87;131071;1253;107672;-78
2023/08/15 08:59:38;;;;;;;5.60;3.20;;;;;;;28.31;58.50;100481.03;131187;1260;106961;-76
2023/08/15 09:02:44;;;;;;;4.80;3.30;;;;;;;28.38;58.17;100479.40;131132;1251;107456;-76
2023/08/15 09:05:49;;;;;;;4.60;3.60;;;;;;;28.50;57.93;100480.59;131079;1254;107548;-76
2023/08/15 09:08:57;;;;;;;5.70;3.80;;;;;;;28.58;57.40;100475.38;131101;1254;107314;-76
2023/08/15 09:12:02;;;;;;;7.40;3.80;;;;;;;28.63;57.14;100476.16;131115;1254;107024;-75
2023/08/15 09:15:10;;;;;;;5.90;3.90;;;;;;;28.67;56.97;100471.73;131016;1264;108001;-75
2023/08/15 09:18:16;;;;;;;5.60;3.90;;;;;;;28.72;56.55;100475.86;131234;1257;107458;-78
2023/08/15 09:21:23;;;;;;;4.50;4.00;;;;;;;28.80;56.40;100475.13;131246;1251;107676;-77
2023/08/15 09:24:29;;;;;;;4.30;3.90;;;;;;;28.88;56.08;100470.59;131046;1251;107367;-78
2023/08/15 09:27:35;;;;;;;4.70;3.90;;;;;;;28.94;56.01;100467.59;130933;1256;107615;-78
2023/08/15 09:30:49;;;;;;;5.90;3.80;;;;;;;29.01;55.47;100465.52;131210;1254;109019;-79
2023/08/15 09:33:55;;;;;;;4.70;3.80;;;;;;;29.07;55.08;100468.84;131076;1253;107625;-77
2023/08/15 09:37:01;;;;;;;4.70;4.00;;;;;;;29.12;54.98;100471.40;131130;1254;107632;-77
2023/08/15 09:40:10;;;;;;;6.10;3.80;;;;;;;29.16;54.66;100470.05;131037;1253;106765;-76
2023/08/15 09:43:17;;;;;;;4.10;3.70;;;;;;;29.21;54.60;100469.61;131187;1254;107930;-77
2023/08/15 09:46:24;;;;;;;4.90;3.90;;;;;;;29.26;54.62;100465.39;131112;1256;107514;-77
2023/08/15 09:49:30;;;;;;;5.10;3.90;;;;;;;29.32;54.22;100466.33;131078;1253;106861;-77
2023/08/15 09:52:38;;;;;;;4.70;4.10;;;;;;;29.38;53.98;100465.17;131155;1251;106723;-77
2023/08/15 09:55:45;;;;;;;8.40;3.90;;;;;;;29.44;54.26;100460.95;131227;1251;107023;-77
2023/08/15 09:58:51;;;;;;;5.80;4.20;;;;;;;29.48;54.27;100460.08;130974;1264;107423;-76
2023/08/15 10:01:59;;;;;;;4.60;4.20;;;;;;;29.52;53.65;100464.09;131092;1264;108812;-77
2023/08/15 10:05:08;;;;;;;4.60;4.20;;;;;;;29.57;53.30;100461.72;131102;1261;107524;-76
2023/08/15 10:08:14;;;;;;;6.00;4.20;;;;;;;29.63;52.87;100463.87;131048;1260;106898;-77
2023/08/15 10:11:20;;;;;;;4.70;4.00;;;;;;;29.64;52.64;100465.19;131008;1254;107795;-77
2023/08/15 10:14:26;;;;;;;5.30;3.50;;;;;;;29.69;52.49;100466.28;130990;1254;107682;-77
2023/08/15 10:17:32;;;;;;;6.20;4.40;;;;;;;29.69;52.01;100462.88;131029;1261;106841;-77
2023/08/15 10:20:39;;;;;;;6.70;4.00;;;;;;;29.71;51.96;100465.02;131107;1251;107401;-78
2023/08/15 10:23:44;;;;;;;6.80;3.90;;;;;;;29.74;51.83;100463.66;130971;1255;107550;-76
2023/08/15 10:26:52;;;;;;;4.40;4.10;;;;;;;29.80;51.80;100467.18;130981;1254;106921;-76
2023/08/15 10:30:03;;;;;;;4.70;4.10;;;;;;;29.84;51.61;100464.33;131039;1253;107804;-76
2023/08/15 10:33:17;;;;;;;4.50;4.00;;;;;;;29.87;51.36;100463.61;130991;1251;107839;-77
2023/08/15 10:36:23;;;;;;;4.60;4.20;;;;;;;29.91;51.37;100462.39;131098;1255;107860;-77
2023/08/15 10:39:28;;;;;;;4.30;4.00;;;;;;;29.95;51.31;100463.21;131066;1251;107953;-77
2023/08/15 10:43:13;;;;;;;4.70;4.30;;;;;;;29.98;50.67;100460.08;131372;1250;107601;-77
2023/08/15 10:46:25;;;;;;;5.40;4.50;;;;;;;30.01;50.74;100458.20;131138;1250;106527;-77
2023/08/15 10:49:30;;;;;;;5.20;4.70;;;;;;;30.06;50.65;100464.25;131261;1251;106991;-77
2023/08/15 10:52:40;;;;;;;8.30;4.30;;;;;;;30.08;50.54;100463.02;130993;1254;106953;-76
2023/08/15 10:55:46;;;;;;;4.70;4.30;;;;;;;30.09;50.52;100457.41;131174;1254;108544;-77
2023/08/15 10:58:52;;;;;;;4.60;4.20;;;;;;;30.12;50.37;100462.35;131124;1251;107453;-76
2023/08/15 11:01:58;;;;;;;4.50;4.20;;;;;;;30.14;50.22;100464.33;131006;1254;107617;-76
2023/08/15 11:05:05;;;;;;;4.60;4.20;;;;;;;30.17;50.12;100462.40;131114;1254;106939;-76
2023/08/15 11:08:16;;;;;;;4.40;4.00;;;;;;;30.19;49.46;100458.11;131000;1253;106541;-76
2023/08/15 11:11:22;;;;;;;4.20;3.90;;;;;;;30.23;49.35;100458.30;131047;1251;108577;-76
2023/08/15 11:14:27;;;;;;;4.30;3.90;;;;;;;30.28;49.29;100456.31;131046;1251;107728;-74
2023/08/15 11:17:33;;;;;;;5.70;3.70;;;;;;;30.29;48.42;100453.19;130900;1251;107412;-75
2023/08/15 11:20:39;;;;;;;4.30;3.90;;;;;;;30.32;48.65;100456.86;131074;1251;106575;-76
2023/08/15 11:23:46;;;;;;;3.90;3.50;;;;;;;30.38;48.25;100457.42;131059;1254;107733;-75
2023/08/15 11:26:53;;;;;;;4.70;3.60;;;;;;;30.40;48.12;100458.79;130991;1254;107954;-76
2023/08/15 11:30:01;;;;;;;4.60;3.70;;;;;;;30.44;47.87;100456.13;130992;1253;108232;-76
2023/08/15 11:33:07;;;;;;;4.70;3.40;;;;;;;30.47;47.68;100452.09;131077;1254;106813;-75
2023/08/15 11:36:13;;;;;;;4.80;3.60;;;;;;;30.51;47.81;100441.50;131071;1254;108149;-75
2023/08/15 11:39:19;;;;;;;3.50;3.20;;;;;;;30.53;46.94;100442.38;131097;1257;106814;-75
2023/08/15 11:42:25;;;;;;;3.80;3.00;;;;;;;30.56;46.23;100440.60;130978;1253;108482;-75
2023/08/15 11:45:33;;;;;;;4.60;3.00;;;;;;;30.59;45.86;100440.38;130980;1261;107386;-75
2023/08/15 11:48:39;;;;;;;4.20;3.10;;;;;;;30.58;45.57;100434.58;131030;1254;106364;-75
2023/08/15 11:51:44;;;;;;;6.00;2.90;;;;;;;30.59;45.44;100431.29;131066;1254;107565;-76
2023/08/15 11:54:50;;;;;;;4.70;3.20;;;;;;;30.60;44.90;100435.13;130985;1253;108498;-76
2023/08/15 11:57:55;;;;;;;4.40;3.30;;;;;;;30.63;44.24;100437.05;131001;1254;108445;-76
2023/08/15 12:01:05;;;;;;;3.90;3.20;;;;;;;30.66;44.80;100435.00;130969;1252;108693;-75
2023/08/15 12:04:12;;;;;;;3.50;2.70;;;;;;;30.67;44.23;100427.55;131029;1251;107819;-74
2023/08/15 12:07:19;;;;;;;3.60;3.00;;;;;;;30.67;44.08;100424.86;131010;1254;107641;-74
2023/08/15 12:10:26;;;;;;;3.70;3.40;;;;;;;30.70;43.80;100425.34;130996;1263;106967;-77
2023/08/15 12:13:33;;;;;;;5.30;3.50;;;;;;;30.75;44.24;100413.45;130989;1254;107695;-77
2023/08/15 12:16:40;;;;;;;4.30;3.70;;;;;;;30.77;44.08;100416.59;131057;1254;105836;-77
2023/08/15 12:19:46;;;;;;;4.90;3.30;;;;;;;30.77;43.28;100411.68;131102;1253;106722;-77
2023/08/15 12:22:52;;;;;;;4.70;3.40;;;;;;;30.77;42.86;100410.48;130962;1254;107919;-77
2023/08/15 12:25:57;;;;;;;4.20;3.50;;;;;;;30.82;42.89;100412.76;131022;1250;107290;-76
2023/08/15 12:29:03;;;;;;;3.60;3.20;;;;;;;30.85;43.19;100411.36;131111;1251;107839;-78
2023/08/15 12:32:09;;;;;;;3.20;2.80;;;;;;;30.89;42.58;100411.02;131180;1264;106862;-77
2023/08/15 12:35:14;;;;;;;4.30;3.30;;;;;;;30.92;42.79;100409.98;131315;1251;108394;-75
2023/08/15 12:38:20;;;;;;;4.50;3.20;;;;;;;30.92;42.58;100407.32;131239;1250;107710;-74
2023/08/15 12:41:25;;;;;;;4.60;3.10;;;;;;;30.96;42.33;100399.98;131144;1253;107207;-74
2023/08/15 12:44:31;;;;;;;3.50;3.10;;;;;;;30.98;42.12;100397.52;131465;1261;107942;-76
2023/08/15 12:47:36;;;;;;;5.30;3.10;;;;;;;31.00;41.88;100394.98;131527;1257;106746;-76
2023/08/15 12:50:42;;;;;;;3.00;2.70;;;;;;;31.05;41.76;100392.91;131158;1253;178676;-75
2023/08/15 12:53:48;;;;;;;4.20;3.20;;;;;;;31.08;41.64;100390.23;131176;1250;106857;-76
2023/08/15 12:56:53;;;;;;;4.90;3.30;;;;;;;31.11;41.32;100390.60;131168;1251;107801;-75
2023/08/15 12:59:59;;;;;;;3.50;2.90;;;;;;;31.17;41.55;100391.98;131217;1251;107921;-75
2023/08/15 13:03:05;;;;;;;3.00;2.70;;;;;;;31.17;41.07;100390.56;131225;1253;108394;-76
2023/08/15 13:06:11;;;;;;;3.00;2.70;;;;;;;31.16;40.85;100388.48;131348;1251;106651;-76
2023/08/15 13:09:17;;;;;;;4.80;3.10;;;;;;;31.15;40.87;100383.80;131248;1253;108286;-76
2023/08/15 13:12:22;;;;;;;3.10;2.80;;;;;;;31.14;40.56;100387.55;131251;1255;107753;-75
2023/08/15 13:15:28;;;;;;;4.30;2.80;;;;;;;31.12;40.42;100383.65;131436;1254;107850;-74
2023/08/15 13:18:34;;;;;;;5.70;2.80;;;;;;;31.09;40.22;100377.33;131048;1254;108395;-76
2023/08/15 13:21:39;;;;;;;4.30;2.90;;;;;;;31.10;40.50;100377.27;131138;1254;107679;-76
2023/08/15 13:24:45;;;;;;;3.80;2.90;;;;;;;31.11;40.34;100372.63;131055;1264;107833;-76
2023/08/15 13:27:50;;;;;;;3.80;3.00;;;;;;;31.11;39.90;100370.43;131082;1251;108686;-76
2023/08/15 13:30:56;;;;;;;5.30;3.10;;;;;;;31.10;39.47;100368.06;131109;1254;107572;-76
2023/08/15 13:34:01;;;;;;;3.60;3.10;;;;;;;31.11;39.52;100368.84;131063;1253;107803;-76
2023/08/15 13:37:07;;;;;;;4.10;3.20;;;;;;;31.15;39.65;100365.61;131130;1250;108553;-77
2023/08/15 13:40:14;;;;;;;4.50;3.20;;;;;;;31.18;39.87;100361.00;131125;1251;106548;-76
2023/08/15 13:43:19;;;;;;;5.70;3.40;;;;;;;31.20;40.02;100359.71;131010;1251;108757;-76
2023/08/15 13:46:25;;;;;;;7.10;3.60;;;;;;;31.20;40.09;100361.86;131046;1254;108474;-76
2023/08/15 13:49:30;;;;;;;3.90;3.40;;;;;;;31.22;40.12;100353.77;131026;1254;108503;-76
2023/08/15 13:52:36;;;;;;;3.70;3.20;;;;;;;31.21;40.04;100356.34;130999;1251;106759;-76
2023/08/15 13:55:42;;;;;;;3.60;3.30;;;;;;;31.22;40.04;100356.00;130996;1253;107926;-76
2023/08/15 13:58:47;;;;;;;3.90;3.50;;;;;;;31.23;40.06;100360.23;131091;1251;108583;-76
2023/08/15 14:01:53;;;;;;;3.60;3.30;;;;;;;31.23;40.11;100357.42;131024;1254;107767;-76
2023/08/15 14:04:59;;;;;;;3.50;3.10;;;;;;;31.22;40.05;100353.25;131044;1255;107776;-76